Kokuryumaru — JL5701 — position and weather

sailwx.info

Track history (hours):
 
Tides and Currents Weather Stations Pressure Air Temp Water Temp Dewpoint Dewpoint Depression Visibility Wind Speed Wind Dir Waves Ship Positions

Kokuryumaru

Last reported at 2017-Nov-18 22:05 UTC. Time now 2017-Nov-22 11:06 UTC.
Position N 34°08' E 134°45'.

Length 109 m; draft 5 m.

Type: Cargo ship. MMSI: 431500862.

Date/timePositionNaut miles runAvg speedWind from/ knotsBaromVisibWave heightAir tempDewpointWater temp
2017-Nov-18 22:05N 34°08' E 134°45'234 7.6
2017-Nov-17 15:28N 34°53' E 139°24'614.2
2017-Nov-17 15:00N 34°57' E 139°30'815.3
2017-Nov-17 14:30N 35°03' E 139°37'815.9
2017-Nov-17 14:00N 35°09' E 139°43'714.0
2017-Nov-17 13:30N 35°15' E 139°46'612.5
2017-Nov-17 13:00N 35°21' E 139°42'713.6
2017-Nov-17 12:30N 35°27' E 139°43'1 1.2
2017-Nov-17 12:00N 35°28' E 139°43'0 0.1
2017-Nov-17 11:30N 35°28' E 139°43'0 0.0
2017-Nov-17 11:00N 35°28' E 139°43'0 0.1
2017-Nov-17 10:30N 35°28' E 139°43'0 0.1
2017-Nov-17 09:57N 35°28' E 139°43'0 0.1
2017-Nov-17 09:30N 35°28' E 139°43'0 0.1
2017-Nov-17 09:00N 35°28' E 139°43'0 0.1
2017-Nov-17 08:30N 35°28' E 139°43'0 0.1
2017-Nov-17 08:00N 35°28' E 139°43'0 0.1
2017-Nov-17 07:30N 35°28' E 139°43'0 0.0
2017-Nov-17 07:00N 35°28' E 139°43'0 0.1
2017-Nov-17 06:30N 35°28' E 139°43'0 0.1
2017-Nov-17 06:00N 35°28' E 139°43'0 0.2
2017-Nov-17 05:31N 35°28' E 139°43'3 5.2
2017-Nov-17 05:01N 35°27' E 139°45'5 9.4
2017-Nov-17 04:31N 35°29' E 139°50'610.4
2017-Nov-17 03:57N 35°34' E 139°55'4 9.4
2017-Nov-17 03:30N 35°37' E 139°58'3 0.6
2017-Nov-16 21:47N 35°40' E 139°57'8 6.6
2017-Nov-16 20:35N 35°33' E 139°55'114.4
2017-Nov-16 20:30N 35°32' E 139°54'714.4
2017-Nov-16 20:00N 35°26' E 139°48'612.0
2017-Nov-16 19:30N 35°21' E 139°45'510.4
2017-Nov-16 19:00N 35°16' E 139°46'510.9
2017-Nov-16 18:30N 35°10' E 139°47'510.6
2017-Nov-16 18:00N 35°05' E 139°45'714.5
2017-Nov-16 17:30N 35°00' E 139°39'247 5.4
2017-Nov-14 20:01N 34°08' E 134°45'013.9
2017-Nov-14 20:00N 34°08' E 134°45'1116.1
2017-Nov-14 19:19N 33°59' E 134°54'  
2017-Nov-11 20:30N 34°09' E 134°44'815.6
2017-Nov-11 20:00N 34°03' E 134°50'  
2017-Nov-08 22:55N 33°60' E 134°54'  
Track history (hours):
 
Tides and Currents Weather Stations Pressure Air Temp Water Temp Dewpoint Dewpoint Depression Visibility Wind Speed Wind Dir Waves Ship Positions

Kokuryumaru

Last reported at 2017-Nov-18 22:05 UTC. Time now 2017-Nov-22 11:06 UTC.
Position N 34°08' E 134°45'.

Length 109 m; draft 5 m.

Type: Cargo ship. MMSI: 431500862.

Date/timePositionNaut miles runAvg speedWind from/ knotsBaromVisibWave heightAir tempDewpointWater temp
2017-Nov-18 22:05N 34°08' E 134°45'234 7.6
2017-Nov-17 15:28N 34°53' E 139°24'614.2
2017-Nov-17 15:00N 34°57' E 139°30'815.3
2017-Nov-17 14:30N 35°03' E 139°37'815.9
2017-Nov-17 14:00N 35°09' E 139°43'714.0
2017-Nov-17 13:30N 35°15' E 139°46'612.5
2017-Nov-17 13:00N 35°21' E 139°42'713.6
2017-Nov-17 12:30N 35°27' E 139°43'1 1.2
2017-Nov-17 12:00N 35°28' E 139°43'0 0.1
2017-Nov-17 11:30N 35°28' E 139°43'0 0.0
2017-Nov-17 11:00N 35°28' E 139°43'0 0.1
2017-Nov-17 10:30N 35°28' E 139°43'0 0.1
2017-Nov-17 09:57N 35°28' E 139°43'0 0.1
2017-Nov-17 09:30N 35°28' E 139°43'0 0.1
2017-Nov-17 09:00N 35°28' E 139°43'0 0.1
2017-Nov-17 08:30N 35°28' E 139°43'0 0.1
2017-Nov-17 08:00N 35°28' E 139°43'0 0.1
2017-Nov-17 07:30N 35°28' E 139°43'0 0.0
2017-Nov-17 07:00N 35°28' E 139°43'0 0.1
2017-Nov-17 06:30N 35°28' E 139°43'0 0.1
2017-Nov-17 06:00N 35°28' E 139°43'0 0.2
2017-Nov-17 05:31N 35°28' E 139°43'3 5.2
2017-Nov-17 05:01N 35°27' E 139°45'5 9.4
2017-Nov-17 04:31N 35°29' E 139°50'610.4
2017-Nov-17 03:57N 35°34' E 139°55'4 9.4
2017-Nov-17 03:30N 35°37' E 139°58'3 0.6
2017-Nov-16 21:47N 35°40' E 139°57'8 6.6
2017-Nov-16 20:35N 35°33' E 139°55'114.4
2017-Nov-16 20:30N 35°32' E 139°54'714.4
2017-Nov-16 20:00N 35°26' E 139°48'612.0
2017-Nov-16 19:30N 35°21' E 139°45'510.4
2017-Nov-16 19:00N 35°16' E 139°46'510.9
2017-Nov-16 18:30N 35°10' E 139°47'510.6
2017-Nov-16 18:00N 35°05' E 139°45'714.5
2017-Nov-16 17:30N 35°00' E 139°39'247 5.4
2017-Nov-14 20:01N 34°08' E 134°45'013.9
2017-Nov-14 20:00N 34°08' E 134°45'1116.1
2017-Nov-14 19:19N 33°59' E 134°54'  
2017-Nov-11 20:30N 34°09' E 134°44'815.6
2017-Nov-11 20:00N 34°03' E 134°50'  
2017-Nov-08 22:55N 33°60' E 134°54'  

Dump ship's entire track history